Aérodrome :
LOGIN :

S'inscrire | Disclaimer

   EN    FR    IT 

 










Légende :    VFR   VFR Marginal   IFR   IFR Intensif   IFR Très Intensif
Visi : 
Plafond : 
>= 8 km
>= 3000ft
5 à 8 km
1000 à 3000 ft
1500m à 5 km
500 à 1000 ft
800 à 1500m
200 à 500 ft
< 800m
< 200 ft
Symboles :   Orages  Brouillard  Fortes neiges  Fortes précipitations  Vent > 20 kt
SIGMETs :   Divers  Orages  Givrage  Turbulence  Onde Orograph.  Cendres Volcan.







- Altitude de l'aérodrome : 538 ft
- Code IATA : TNF
- Voir les cartes d'approche


LFPN - Toussus Le Noble

DERNIER METAR :
  • 200900Z AUTO 36004KT 330V030 1700 BR VV/// ///TCU 02/02 Q1012 TEMPO 0500 -DZRA FG VV///

METARs EXPIRÉS :
  • 200830Z AUTO 03005KT 3700 -DZ BR OVC003/// ///CB 02/02 Q1012 TEMPO 0500 -DZRA FG VV///
  • 200800Z AUTO 02005KT 2800 BR OVC002/// ///TCU 02/02 Q1011 TEMPO 0500 -DZRA FG VV///
  • 200730Z AUTO 03004KT 5000 BR OVC004/// ///TCU 02/02 Q1011 TEMPO 0500 -DZRA FG VV///
  • 200700Z AUTO 03003KT 360V060 3400 BR VV/// ///TCU 02/02 Q1010 TEMPO 0500 -DZRA FG VV///
  • 200630Z AUTO 04002KT 1500 1000 R25R/P2000 BR VV/// ///CB 02/02 Q1010 TEMPO 0500 -DZRA FG VV///

TAF TAF LFPN
Valide du 20 à 09h jusqu'au 20 à 18h UTC


200800Z 2009/2018 03007KT 4000 BR OVC004
TEMPO 2009/2011 0500 -DZRA FG VV///
BECMG 2011/2013 8000 NSW BKN011
TEMPO 2013/2018 4000 BR BKN006
ATIS : +33 1 39 56 54 70
Pas de NOTAMs connus pour ce terrain.



MET'MAP, la Météo Aéronautique d'un coup d'oeil ! - Copyright ORBIFLY Décembre 2007 - Disclaimer

ORBIFLY MET'MAP TEAM :

Programmation & Développement : Alexandra Zaïnal
Conception & Développement : Baudouin d'Aumeries
Co-Programmation & Développement : Marc-Olivier Méhu
Soutien technique & logistique : Manuel Goepfert

Contact : metmap@orbifly.com




SOURCES & CREDITS :

   NOAA